createdAt,value
2019-02-15T00:00:34.782Z,0.00
2019-02-15T00:02:27.753Z,0.00
2019-02-15T00:03:27.805Z,0.00
2019-02-15T00:05:20.782Z,0.00
2019-02-15T00:06:20.833Z,0.00
2019-02-15T00:08:13.801Z,0.00
2019-02-15T00:09:13.853Z,0.00
2019-02-15T00:11:06.829Z,0.00
2019-02-15T00:12:06.878Z,0.00
2019-02-15T00:13:59.853Z,0.00
2019-02-15T00:14:59.906Z,0.00
2019-02-15T00:16:52.890Z,0.00
2019-02-15T00:17:52.937Z,0.00
2019-02-15T00:19:45.910Z,0.00
2019-02-15T00:20:45.961Z,0.00
2019-02-15T00:22:38.940Z,0.00
2019-02-15T00:23:38.987Z,0.00
2019-02-15T00:25:31.982Z,0.00
2019-02-15T00:26:32.015Z,0.00
2019-02-15T00:28:24.993Z,0.00
2019-02-15T00:29:25.045Z,0.00
2019-02-15T00:31:18.026Z,0.00
2019-02-15T00:32:18.072Z,0.00
2019-02-15T00:34:11.039Z,0.00
2019-02-15T00:35:11.096Z,0.00
2019-02-15T00:37:04.076Z,0.00
2019-02-15T00:38:04.118Z,0.00
2019-02-15T00:39:57.091Z,0.00
2019-02-15T00:40:57.137Z,0.00
2019-02-15T00:42:50.121Z,0.00
2019-02-15T00:43:50.167Z,0.00
2019-02-15T00:45:43.148Z,0.00
2019-02-15T00:46:43.198Z,0.00
2019-02-15T00:48:36.170Z,0.00
2019-02-15T00:49:36.221Z,0.00
2019-02-15T00:51:29.197Z,0.00
2019-02-15T00:52:29.244Z,0.00
2019-02-15T00:54:22.239Z,0.00
2019-02-15T00:55:22.269Z,0.00
2019-02-15T00:57:15.251Z,0.00
2019-02-15T00:58:15.298Z,0.00
2019-02-15T01:00:08.270Z,0.00
2019-02-15T01:01:08.324Z,0.00
2019-02-15T01:03:01.303Z,0.00
2019-02-15T01:04:01.349Z,0.00
2019-02-15T01:05:54.327Z,0.00
2019-02-15T01:06:54.372Z,0.00
2019-02-15T01:08:47.343Z,0.00
2019-02-15T01:09:47.395Z,0.00
2019-02-15T01:11:40.370Z,0.00
2019-02-15T01:12:40.418Z,0.00
2019-02-15T01:14:33.388Z,0.00
2019-02-15T01:15:33.444Z,0.00
2019-02-15T01:17:26.434Z,0.00
2019-02-15T01:18:26.472Z,0.00
2019-02-15T01:20:19.443Z,0.00
2019-02-15T01:21:19.491Z,0.00
2019-02-15T01:23:12.482Z,0.00
2019-02-15T01:24:12.523Z,0.00
2019-02-15T01:26:05.562Z,0.00
2019-02-15T01:27:05.553Z,0.00
2019-02-15T01:28:58.531Z,0.00
2019-02-15T01:29:58.580Z,0.00
2019-02-15T01:31:51.560Z,0.00
2019-02-15T01:32:51.619Z,0.00
2019-02-15T01:34:44.579Z,0.00
2019-02-15T01:35:44.633Z,0.00
2019-02-15T01:37:37.618Z,0.00
2019-02-15T01:38:37.655Z,0.00
2019-02-15T01:40:30.632Z,0.00
2019-02-15T01:41:30.683Z,0.00
2019-02-15T01:43:23.658Z,0.00
2019-02-15T01:44:23.847Z,0.00
2019-02-15T01:46:16.682Z,0.00
2019-02-15T01:47:16.730Z,0.00
2019-02-15T01:49:09.706Z,0.00
2019-02-15T01:50:09.764Z,0.00
2019-02-15T01:52:02.739Z,0.00
2019-02-15T01:53:02.784Z,0.00
2019-02-15T01:54:55.758Z,0.00
2019-02-15T01:55:55.806Z,0.00
2019-02-15T01:57:48.785Z,0.00
2019-02-15T01:58:48.833Z,0.00
2019-02-15T02:00:41.803Z,0.00
2019-02-15T02:01:41.859Z,0.00
2019-02-15T02:03:34.834Z,0.00
2019-02-15T02:04:34.881Z,0.00
2019-02-15T02:06:27.856Z,0.00
2019-02-15T02:07:27.909Z,0.00
2019-02-15T02:09:20.879Z,0.00
2019-02-15T02:10:20.932Z,0.00
2019-02-15T02:12:13.912Z,0.00
2019-02-15T02:13:13.961Z,0.00
2019-02-15T02:15:06.927Z,0.00
2019-02-15T02:16:06.979Z,0.00
2019-02-15T02:17:59.959Z,0.00
2019-02-15T02:19:00.009Z,0.00
2019-02-15T02:20:52.990Z,0.00
2019-02-15T02:21:53.046Z,0.00
2019-02-15T02:23:46.018Z,0.00
2019-02-15T02:24:46.066Z,0.00
2019-02-15T02:26:39.059Z,0.00
2019-02-15T02:27:39.133Z,0.00
2019-02-15T02:29:32.098Z,0.00
2019-02-15T02:30:32.139Z,0.00
2019-02-15T02:32:25.143Z,0.00
2019-02-15T02:33:25.184Z,0.00
2019-02-15T02:35:18.176Z,0.00
2019-02-15T02:36:18.216Z,0.00
2019-02-15T02:38:11.187Z,0.00
2019-02-15T02:39:11.234Z,0.00
2019-02-15T02:41:04.203Z,0.00
2019-02-15T02:42:04.256Z,0.00
2019-02-15T02:43:59.588Z,0.00
2019-02-15T02:44:57.281Z,0.00
2019-02-15T02:46:50.254Z,0.00
2019-02-15T02:47:50.304Z,0.00
2019-02-15T02:49:43.286Z,0.00
2019-02-15T02:50:43.334Z,0.00
2019-02-15T02:52:36.323Z,0.00
2019-02-15T02:53:36.363Z,0.00
2019-02-15T02:55:29.335Z,0.00
2019-02-15T02:56:29.382Z,0.00
2019-02-15T02:58:22.376Z,0.00
2019-02-15T02:59:22.425Z,0.00
2019-02-15T03:01:15.407Z,0.00
2019-02-15T03:02:15.453Z,0.00
2019-02-15T03:04:08.435Z,0.00
2019-02-15T03:05:08.474Z,0.00
2019-02-15T03:07:01.439Z,0.00
2019-02-15T03:08:01.497Z,0.00
2019-02-15T03:09:54.492Z,0.00
2019-02-15T03:10:54.521Z,0.00
2019-02-15T03:12:47.498Z,0.00
2019-02-15T03:13:47.548Z,0.00
2019-02-15T03:15:40.530Z,0.00
2019-02-15T03:16:40.576Z,0.00
2019-02-15T03:18:33.554Z,0.00
2019-02-15T03:19:33.607Z,0.00
2019-02-15T03:21:26.578Z,0.00
2019-02-15T03:22:26.626Z,0.00
2019-02-15T03:24:19.609Z,0.00
2019-02-15T03:25:19.649Z,0.00
2019-02-15T03:27:12.640Z,0.00
2019-02-15T03:28:12.674Z,0.00
2019-02-15T03:30:05.652Z,0.00
2019-02-15T03:31:05.698Z,0.00
2019-02-15T03:32:58.676Z,0.00
2019-02-15T03:33:58.719Z,0.00
2019-02-15T03:35:51.689Z,0.00
2019-02-15T03:36:51.742Z,0.00
2019-02-15T03:38:44.719Z,0.00
2019-02-15T03:39:44.815Z,0.00
2019-02-15T03:41:37.734Z,0.00
2019-02-15T03:42:37.791Z,0.00
2019-02-15T03:44:30.777Z,0.00
2019-02-15T03:45:30.809Z,0.00
2019-02-15T03:47:24.289Z,0.00
2019-02-15T03:48:24.338Z,0.00
2019-02-15T03:50:17.315Z,0.00
2019-02-15T03:51:17.364Z,0.00
2019-02-15T03:53:10.348Z,0.00
2019-02-15T03:54:10.397Z,0.00
2019-02-15T03:56:03.393Z,0.00
2019-02-15T03:57:03.453Z,0.00
2019-02-15T03:58:56.422Z,0.00
2019-02-15T03:59:56.468Z,0.00
2019-02-15T04:01:49.438Z,0.00
2019-02-15T04:02:49.496Z,0.00
2019-02-15T04:04:42.465Z,0.00
2019-02-15T04:05:42.522Z,0.00
2019-02-15T04:07:35.491Z,0.00
2019-02-15T04:08:35.538Z,0.00
2019-02-15T04:10:28.514Z,0.00
2019-02-15T04:11:28.561Z,0.00
2019-02-15T04:13:21.546Z,0.00
2019-02-15T04:14:32.265Z,0.00
2019-02-15T04:16:14.560Z,0.00
2019-02-15T04:17:14.615Z,0.00
2019-02-15T04:19:07.595Z,0.00
2019-02-15T04:20:07.645Z,0.00
2019-02-15T04:22:00.608Z,0.00
2019-02-15T04:23:00.659Z,0.00
2019-02-15T04:24:53.635Z,0.00
2019-02-15T04:25:53.679Z,0.00
2019-02-15T04:27:46.648Z,0.00
2019-02-15T04:28:46.702Z,0.00
2019-02-15T04:30:39.700Z,0.00
2019-02-15T04:31:39.741Z,0.00
2019-02-15T04:33:32.717Z,0.00
2019-02-15T04:34:32.764Z,0.00
2019-02-15T04:36:25.751Z,0.00
2019-02-15T04:37:25.795Z,0.00
2019-02-15T04:39:18.764Z,0.00
2019-02-15T04:40:18.810Z,0.00
2019-02-15T04:42:11.785Z,0.00
2019-02-15T04:43:11.834Z,0.00
2019-02-15T04:45:04.818Z,0.00
2019-02-15T04:46:04.863Z,0.00
2019-02-15T04:47:58.340Z,0.00
2019-02-15T04:48:58.390Z,0.00
2019-02-15T04:50:51.366Z,0.00
2019-02-15T04:51:51.413Z,0.00
2019-02-15T04:53:44.389Z,0.00
2019-02-15T04:54:44.438Z,0.00
2019-02-15T04:56:37.402Z,0.00
2019-02-15T04:57:37.453Z,0.00
2019-02-15T04:59:30.431Z,0.00
2019-02-15T05:00:30.477Z,0.00
2019-02-15T05:02:23.469Z,0.00
2019-02-15T05:03:23.502Z,0.00
2019-02-15T05:05:16.476Z,0.00
2019-02-15T05:06:16.524Z,0.00
2019-02-15T05:08:09.493Z,0.00
2019-02-15T05:09:09.545Z,0.00
2019-02-15T05:11:02.521Z,0.00
2019-02-15T05:12:02.564Z,0.00
2019-02-15T05:13:55.549Z,0.00
2019-02-15T05:14:55.602Z,0.00
2019-02-15T05:16:48.558Z,0.00
2019-02-15T05:17:48.612Z,0.00
2019-02-15T05:19:41.606Z,0.00
2019-02-15T05:20:41.630Z,0.00
2019-02-15T05:22:34.603Z,0.00
2019-02-15T05:23:34.651Z,0.00
2019-02-15T05:25:27.655Z,0.00
2019-02-15T05:26:27.679Z,0.00
2019-02-15T05:28:20.646Z,0.00
2019-02-15T05:29:20.708Z,0.00
2019-02-15T05:31:13.683Z,0.00
2019-02-15T05:32:13.723Z,0.00
2019-02-15T05:34:06.703Z,0.00
2019-02-15T05:35:06.770Z,0.00
2019-02-15T05:36:59.723Z,0.00
2019-02-15T05:37:59.772Z,0.00
2019-02-15T05:39:52.750Z,0.00
2019-02-15T05:40:52.799Z,0.00
2019-02-15T05:42:45.769Z,0.00
2019-02-15T05:43:45.819Z,0.00
2019-02-15T05:45:39.651Z,0.00
2019-02-15T05:46:39.708Z,0.00
2019-02-15T05:48:32.664Z,0.00
2019-02-15T05:49:32.719Z,0.00
2019-02-15T05:51:25.694Z,0.00
2019-02-15T05:52:25.736Z,0.00
2019-02-15T05:54:18.724Z,0.00
2019-02-15T05:55:19.747Z,0.00
2019-02-15T05:57:11.739Z,0.00
2019-02-15T05:58:11.792Z,0.00
2019-02-15T06:00:04.766Z,0.00
2019-02-15T06:01:04.815Z,0.00
2019-02-15T06:02:57.779Z,0.00
2019-02-15T06:03:57.836Z,0.00
2019-02-15T06:05:50.802Z,0.00
2019-02-15T06:06:50.852Z,0.00
2019-02-15T06:08:43.837Z,0.00
2019-02-15T06:09:43.877Z,0.00
2019-02-15T06:11:36.859Z,0.00
2019-02-15T06:12:36.894Z,0.00
2019-02-15T06:14:30.386Z,4.00
2019-02-15T06:15:30.432Z,4.00
2019-02-15T06:17:23.427Z,4.00
2019-02-15T06:18:23.461Z,4.00
2019-02-15T06:20:16.467Z,8.00
2019-02-15T06:21:16.485Z,8.00
2019-02-15T06:23:09.458Z,8.00
2019-02-15T06:24:09.510Z,12.00
2019-02-15T06:26:02.487Z,16.00
2019-02-15T06:27:02.535Z,20.00
2019-02-15T06:28:55.501Z,28.00
2019-02-15T06:29:55.558Z,32.00
2019-02-15T06:31:48.529Z,40.00
2019-02-15T06:32:48.574Z,44.00
2019-02-15T06:34:41.547Z,60.00
2019-02-15T06:35:41.595Z,72.00
2019-02-15T06:37:34.587Z,92.00
2019-02-15T06:38:35.262Z,100.00
2019-02-15T06:40:27.622Z,128.00
2019-02-15T06:41:27.668Z,144.00
2019-02-15T06:43:20.636Z,172.00
2019-02-15T06:44:20.688Z,188.00
2019-02-15T06:46:13.664Z,224.00
2019-02-15T06:47:13.763Z,244.00
2019-02-15T06:49:06.687Z,284.00
2019-02-15T06:50:06.744Z,304.00
2019-02-15T06:51:59.729Z,348.00
2019-02-15T06:52:59.779Z,372.00
2019-02-15T06:54:52.765Z,416.00
2019-02-15T06:55:52.813Z,440.00
2019-02-15T06:57:45.780Z,488.00
2019-02-15T06:58:45.986Z,512.00
2019-02-15T07:00:38.808Z,564.00
2019-02-15T07:01:38.858Z,592.00
2019-02-15T07:03:31.821Z,640.00
2019-02-15T07:04:31.880Z,668.00
2019-02-15T07:06:24.855Z,720.00
2019-02-15T07:07:24.906Z,744.00
2019-02-15T07:09:17.870Z,796.00
2019-02-15T07:10:17.922Z,824.00
2019-02-15T07:12:10.904Z,868.00
2019-02-15T07:13:10.949Z,892.00
2019-02-15T07:15:03.933Z,944.00
2019-02-15T07:16:03.980Z,964.00
2019-02-15T07:17:56.945Z,1008.00
2019-02-15T07:18:57.002Z,1032.00
2019-02-15T07:20:49.973Z,1076.00
2019-02-15T07:21:50.026Z,1096.00
2019-02-15T07:23:43.008Z,1140.00
2019-02-15T07:24:43.053Z,1160.00
2019-02-15T07:26:36.038Z,1204.00
2019-02-15T07:27:36.080Z,1224.00
2019-02-15T07:29:29.052Z,1260.00
2019-02-15T07:30:29.100Z,1280.00
2019-02-15T07:32:22.091Z,1312.00
2019-02-15T07:33:22.132Z,1336.00
2019-02-15T07:35:15.118Z,1372.00
2019-02-15T07:36:15.157Z,1392.00
2019-02-15T07:38:08.123Z,1428.00
2019-02-15T07:39:08.179Z,1444.00
2019-02-15T07:41:01.195Z,1476.00
2019-02-15T07:42:01.196Z,1500.00
2019-02-15T07:43:54.198Z,1532.00
2019-02-15T07:44:54.250Z,1548.00
2019-02-15T07:46:47.222Z,1584.00
2019-02-15T07:47:47.275Z,1604.00
2019-02-15T07:49:40.240Z,1644.00
2019-02-15T07:50:40.289Z,1668.00
2019-02-15T07:52:33.268Z,1744.00
2019-02-15T07:53:33.314Z,1836.00
2019-02-15T07:55:26.303Z,2452.00
2019-02-15T07:56:26.338Z,3464.00
2019-02-15T07:58:19.305Z,5812.00
2019-02-15T07:59:19.359Z,6136.00
2019-02-15T08:01:12.341Z,6196.00
2019-02-15T08:02:12.383Z,6200.00
2019-02-15T08:04:06.830Z,6228.00
2019-02-15T08:05:05.412Z,6252.00
2019-02-15T08:06:58.389Z,6284.00
2019-02-15T08:07:58.436Z,6296.00
2019-02-15T08:09:51.405Z,6316.00
2019-02-15T08:10:51.462Z,6332.00
2019-02-15T08:12:44.449Z,6368.00
2019-02-15T08:13:44.490Z,6348.00
2019-02-15T08:15:37.470Z,6364.00
2019-02-15T08:16:38.782Z,6364.00
2019-02-15T08:18:30.494Z,6352.00
2019-02-15T08:19:30.548Z,6364.00
2019-02-15T08:21:23.530Z,6392.00
2019-02-15T08:22:23.581Z,6372.00
2019-02-15T08:24:16.595Z,6416.00
2019-02-15T08:25:16.612Z,6436.00
2019-02-15T08:27:09.592Z,6424.00
2019-02-15T08:28:09.645Z,6424.00
2019-02-15T08:30:02.617Z,6420.00
2019-02-15T08:31:02.674Z,6436.00
2019-02-15T08:32:55.656Z,6460.00
2019-02-15T08:33:55.704Z,6464.00
2019-02-15T08:35:48.694Z,6384.00
2019-02-15T08:36:48.754Z,6328.00
2019-02-15T08:38:41.741Z,6204.00
2019-02-15T08:39:41.797Z,6160.00
2019-02-15T08:41:34.777Z,6104.00
2019-02-15T08:42:34.827Z,6024.00
2019-02-15T08:44:27.811Z,5864.00
2019-02-15T08:45:27.865Z,5764.00
2019-02-15T08:47:20.854Z,5636.00
2019-02-15T08:48:20.901Z,5580.00
2019-02-15T08:50:13.914Z,5488.00
2019-02-15T08:51:13.974Z,5460.00
2019-02-15T08:53:06.961Z,5484.00
2019-02-15T08:54:07.012Z,5496.00
2019-02-15T08:56:00.001Z,5436.00
2019-02-15T08:57:00.054Z,5380.00
2019-02-15T08:58:53.045Z,5256.00
2019-02-15T08:59:53.096Z,5212.00
2019-02-15T09:01:46.084Z,5188.00
2019-02-15T09:02:46.131Z,5188.00
2019-02-15T09:04:39.125Z,5192.00
2019-02-15T09:05:39.180Z,5204.00
2019-02-15T09:07:32.162Z,5196.00
2019-02-15T09:08:32.217Z,5188.00
2019-02-15T09:10:25.194Z,5140.00
2019-02-15T09:11:25.252Z,5052.00
2019-02-15T09:13:18.239Z,4908.00
2019-02-15T09:14:18.288Z,4816.00
2019-02-15T09:16:11.271Z,4620.00
2019-02-15T09:17:11.325Z,4496.00
2019-02-15T09:19:04.312Z,4260.00
2019-02-15T09:20:04.364Z,4100.00
2019-02-15T09:21:57.354Z,3664.00
2019-02-15T09:22:57.401Z,3284.00
2019-02-15T09:24:50.399Z,2800.00
2019-02-15T09:25:50.440Z,2524.00
2019-02-15T09:27:43.427Z,2204.00
2019-02-15T09:28:43.488Z,2196.00
2019-02-15T09:30:36.463Z,2192.00
2019-02-15T09:31:36.519Z,2196.00
2019-02-15T09:33:29.506Z,2196.00
2019-02-15T09:34:29.555Z,2168.00
2019-02-15T09:36:22.540Z,2060.00
2019-02-15T09:37:22.594Z,2052.00
2019-02-15T09:39:15.584Z,2052.00
2019-02-15T09:40:15.630Z,2056.00
2019-02-15T09:42:08.618Z,2056.00
2019-02-15T09:43:08.667Z,2056.00
2019-02-15T09:45:01.647Z,2064.00
2019-02-15T09:46:01.705Z,2064.00
2019-02-15T09:47:54.687Z,2060.00
2019-02-15T09:48:54.735Z,2060.00
2019-02-15T09:50:47.714Z,2060.00
2019-02-15T09:51:47.771Z,2064.00
2019-02-15T09:53:40.761Z,2068.00
2019-02-15T09:54:40.811Z,2068.00
2019-02-15T09:56:33.789Z,2064.00
2019-02-15T09:57:33.846Z,2064.00
2019-02-15T09:59:26.836Z,2068.00
2019-02-15T10:00:26.886Z,2068.00
2019-02-15T10:02:19.929Z,2068.00
2019-02-15T10:03:19.943Z,2068.00
2019-02-15T10:05:12.917Z,2068.00
2019-02-15T10:06:12.974Z,2068.00
2019-02-15T10:08:05.972Z,2072.00
2019-02-15T10:09:06.008Z,2068.00
2019-02-15T10:10:59.001Z,2072.00
2019-02-15T10:11:59.042Z,2068.00
2019-02-15T10:13:52.049Z,2064.00
2019-02-15T10:14:52.108Z,2068.00
2019-02-15T10:16:45.072Z,2068.00
2019-02-15T10:17:45.128Z,2064.00
2019-02-15T10:19:38.108Z,2068.00
2019-02-15T10:20:38.159Z,2080.00
2019-02-15T10:22:31.142Z,2080.00
2019-02-15T10:23:31.191Z,2076.00
2019-02-15T10:25:24.189Z,2084.00
2019-02-15T10:26:24.242Z,2068.00
2019-02-15T10:28:17.226Z,2068.00
2019-02-15T10:29:17.280Z,2064.00
2019-02-15T10:31:10.255Z,2068.00
2019-02-15T10:32:10.311Z,2068.00
2019-02-15T10:34:03.292Z,2068.00
2019-02-15T10:35:03.351Z,2064.00
2019-02-15T10:36:56.321Z,2068.00
2019-02-15T10:37:56.379Z,2064.00
2019-02-15T10:39:49.368Z,2064.00
2019-02-15T10:40:49.419Z,2060.00
2019-02-15T10:42:42.912Z,2060.00
2019-02-15T10:43:42.962Z,2064.00
2019-02-15T10:45:35.941Z,2060.00
2019-02-15T10:46:37.897Z,2064.00
2019-02-15T10:48:28.986Z,2064.00
2019-02-15T10:49:29.033Z,2064.00
2019-02-15T10:51:22.013Z,2068.00
2019-02-15T10:52:22.074Z,2068.00
2019-02-15T10:54:15.056Z,2060.00
2019-02-15T10:55:15.107Z,2064.00
2019-02-15T10:57:08.149Z,2060.00
2019-02-15T10:58:08.146Z,2060.00
2019-02-15T11:00:01.132Z,2064.00
2019-02-15T11:01:01.181Z,2064.00
2019-02-15T11:02:54.173Z,2060.00
2019-02-15T11:03:54.217Z,2060.00
2019-02-15T11:05:47.198Z,2064.00
2019-02-15T11:06:47.289Z,2064.00
2019-02-15T11:08:40.765Z,2056.00
2019-02-15T11:09:40.810Z,2064.00
2019-02-15T11:11:33.807Z,2064.00
2019-02-15T11:12:33.849Z,2060.00
2019-02-15T11:14:26.843Z,2064.00
2019-02-15T11:15:26.896Z,2060.00
2019-02-15T11:17:19.872Z,2060.00
2019-02-15T11:18:19.931Z,2064.00
2019-02-15T11:20:12.970Z,2060.00
2019-02-15T11:21:12.968Z,2060.00
2019-02-15T11:23:05.957Z,2060.00
2019-02-15T11:24:06.006Z,2060.00
2019-02-15T11:25:58.986Z,2060.00
2019-02-15T11:26:59.040Z,2064.00
2019-02-15T11:28:52.031Z,2060.00
2019-02-15T11:29:52.078Z,2064.00
2019-02-15T11:31:45.062Z,2064.00
2019-02-15T11:32:45.116Z,2060.00
2019-02-15T11:34:38.100Z,2060.00
2019-02-15T11:35:38.154Z,2060.00
2019-02-15T11:37:31.133Z,2056.00
2019-02-15T11:38:31.189Z,2060.00
2019-02-15T11:40:24.178Z,2056.00
2019-02-15T11:41:24.227Z,2056.00
2019-02-15T11:43:17.220Z,2052.00
2019-02-15T11:44:17.272Z,2052.00
2019-02-15T11:46:10.264Z,2048.00
2019-02-15T11:47:10.323Z,2044.00
2019-02-15T11:49:03.316Z,2048.00
2019-02-15T11:50:03.360Z,2044.00
2019-02-15T11:51:56.351Z,2040.00
2019-02-15T11:52:56.402Z,2036.00
2019-02-15T11:54:49.384Z,2036.00
2019-02-15T11:55:49.457Z,2032.00
2019-02-15T11:57:42.426Z,2028.00
2019-02-15T11:58:42.485Z,2028.00
2019-02-15T12:00:35.473Z,2020.00
2019-02-15T12:01:35.533Z,2020.00
2019-02-15T12:03:28.519Z,2020.00
2019-02-15T12:04:28.573Z,2016.00
2019-02-15T12:06:21.587Z,2012.00
2019-02-15T12:07:21.612Z,2008.00
2019-02-15T12:09:14.610Z,2008.00
2019-02-15T12:10:14.676Z,2008.00
2019-02-15T12:12:10.822Z,1996.00
2019-02-15T12:13:07.691Z,2000.00
2019-02-15T12:15:00.690Z,2000.00
2019-02-15T12:16:00.742Z,1996.00
2019-02-15T12:17:53.726Z,1988.00
2019-02-15T12:18:53.803Z,1984.00
2019-02-15T12:20:46.774Z,1976.00
2019-02-15T12:21:46.829Z,1972.00
2019-02-15T12:23:39.860Z,1972.00
2019-02-15T12:24:39.871Z,1968.00
2019-02-15T12:26:32.859Z,1964.00
2019-02-15T12:27:32.918Z,1964.00
2019-02-15T12:29:25.909Z,1956.00
2019-02-15T12:30:25.960Z,1956.00
2019-02-15T12:32:18.951Z,1956.00
2019-02-15T12:33:19.005Z,1952.00
2019-02-15T12:35:12.008Z,1948.00
2019-02-15T12:36:12.043Z,1944.00
2019-02-15T12:38:05.023Z,1940.00
2019-02-15T12:39:05.082Z,1936.00
2019-02-15T12:40:58.072Z,1932.00
2019-02-15T12:41:58.123Z,1928.00
2019-02-15T12:43:51.115Z,1928.00
2019-02-15T12:44:51.166Z,1924.00
2019-02-15T12:46:44.157Z,1924.00
2019-02-15T12:47:44.214Z,1920.00
2019-02-15T12:49:37.207Z,1916.00
2019-02-15T12:50:37.257Z,1920.00
2019-02-15T12:52:30.245Z,1916.00
2019-02-15T12:53:30.301Z,1916.00
2019-02-15T12:55:23.293Z,1904.00
2019-02-15T12:56:23.345Z,1904.00
2019-02-15T12:58:16.333Z,1904.00
2019-02-15T12:59:16.394Z,1900.00
2019-02-15T13:01:09.384Z,1896.00
2019-02-15T13:02:09.440Z,1892.00
2019-02-15T13:04:02.428Z,1884.00
2019-02-15T13:05:02.490Z,1880.00
2019-02-15T13:06:55.504Z,1876.00
2019-02-15T13:07:55.560Z,1872.00
2019-02-15T13:09:48.550Z,1860.00
2019-02-15T13:10:48.604Z,1856.00
2019-02-15T13:12:41.586Z,1848.00
2019-02-15T13:13:41.648Z,1844.00
2019-02-15T13:15:34.639Z,1840.00
2019-02-15T13:16:34.687Z,1836.00
2019-02-15T13:18:27.670Z,1828.00
2019-02-15T13:19:27.726Z,1820.00
2019-02-15T13:21:20.725Z,1816.00
2019-02-15T13:22:20.769Z,1812.00
2019-02-15T13:24:13.754Z,1804.00
2019-02-15T13:25:13.819Z,1800.00
2019-02-15T13:27:08.310Z,1792.00
2019-02-15T13:28:08.368Z,1792.00
2019-02-15T13:30:01.362Z,1784.00
2019-02-15T13:31:01.411Z,1784.00
2019-02-15T13:32:54.415Z,1776.00
2019-02-15T13:33:54.457Z,1772.00
2019-02-15T13:35:47.958Z,1764.00
2019-02-15T13:36:48.001Z,1760.00
2019-02-15T13:38:40.986Z,1756.00
2019-02-15T13:39:41.228Z,1748.00
2019-02-15T13:41:34.038Z,1740.00
2019-02-15T13:42:34.092Z,1736.00
2019-02-15T13:44:27.083Z,1732.00
2019-02-15T13:45:29.395Z,1732.00
2019-02-15T13:47:20.122Z,1728.00
2019-02-15T13:48:20.182Z,1724.00
2019-02-15T13:50:13.227Z,1720.00
2019-02-15T13:51:13.231Z,1712.00
2019-02-15T13:53:06.210Z,1708.00
2019-02-15T13:54:06.270Z,1704.00
2019-02-15T13:55:59.260Z,1696.00
2019-02-15T13:56:59.316Z,1692.00
2019-02-15T13:58:52.289Z,1692.00
2019-02-15T13:59:52.352Z,1688.00
2019-02-15T14:01:45.358Z,1676.00
2019-02-15T14:02:45.393Z,1672.00
2019-02-15T14:04:38.393Z,1660.00
2019-02-15T14:05:38.448Z,1656.00
2019-02-15T14:07:31.435Z,1644.00
2019-02-15T14:08:31.494Z,1640.00
2019-02-15T14:10:24.501Z,1624.00
2019-02-15T14:11:24.555Z,1624.00
2019-02-15T14:13:18.045Z,1612.00
2019-02-15T14:14:18.093Z,1604.00
2019-02-15T14:16:11.145Z,1600.00
2019-02-15T14:17:11.161Z,1600.00
2019-02-15T14:19:04.147Z,1592.00
2019-02-15T14:20:04.208Z,1584.00
2019-02-15T14:21:57.214Z,1576.00
2019-02-15T14:22:57.258Z,1568.00
2019-02-15T14:24:50.251Z,1560.00
2019-02-15T14:25:50.302Z,1552.00
2019-02-15T14:27:44.792Z,1540.00
2019-02-15T14:28:44.911Z,1532.00
2019-02-15T14:30:37.846Z,1520.00
2019-02-15T14:31:37.894Z,1512.00
2019-02-15T14:33:30.886Z,1496.00
2019-02-15T14:34:30.937Z,1496.00
2019-02-15T14:36:23.931Z,1500.00
2019-02-15T14:37:23.979Z,1492.00
2019-02-15T14:39:16.966Z,1480.00
2019-02-15T14:40:17.023Z,1480.00
2019-02-15T14:42:10.015Z,1472.00
2019-02-15T14:43:10.064Z,1464.00
2019-02-15T14:45:03.061Z,1452.00
2019-02-15T14:46:03.107Z,1444.00
2019-02-15T14:47:56.102Z,1436.00
2019-02-15T14:48:56.155Z,1432.00
2019-02-15T14:50:49.148Z,1524.00
2019-02-15T14:51:49.196Z,1520.00
2019-02-15T14:53:42.184Z,1504.00
2019-02-15T14:54:42.246Z,1500.00
2019-02-15T14:56:35.251Z,1488.00
2019-02-15T14:57:35.299Z,1488.00
2019-02-15T14:59:28.281Z,1472.00
2019-02-15T15:00:28.369Z,1464.00
2019-02-15T15:02:21.334Z,1452.00
2019-02-15T15:03:21.395Z,1448.00
2019-02-15T15:05:14.380Z,1432.00
2019-02-15T15:06:14.432Z,1424.00
2019-02-15T15:08:07.424Z,1404.00
2019-02-15T15:09:07.477Z,1392.00
2019-02-15T15:11:00.473Z,1380.00
2019-02-15T15:12:00.534Z,1376.00
2019-02-15T15:13:53.511Z,1364.00
2019-02-15T15:14:53.574Z,1360.00
2019-02-15T15:16:46.568Z,1348.00
2019-02-15T15:17:46.616Z,1344.00
2019-02-15T15:19:39.601Z,1332.00
2019-02-15T15:20:39.661Z,1324.00
2019-02-15T15:22:32.668Z,1312.00
2019-02-15T15:23:32.723Z,1304.00
2019-02-15T15:25:25.711Z,1292.00
2019-02-15T15:26:25.765Z,1288.00
2019-02-15T15:28:18.760Z,1272.00
2019-02-15T15:29:18.813Z,1268.00
2019-02-15T15:31:11.813Z,1252.00
2019-02-15T15:32:11.856Z,1240.00
2019-02-15T15:34:04.849Z,1232.00
2019-02-15T15:35:04.900Z,1224.00
2019-02-15T15:36:57.904Z,1208.00
2019-02-15T15:37:57.958Z,1196.00
2019-02-15T15:39:50.952Z,1180.00
2019-02-15T15:40:51.001Z,1172.00
2019-02-15T15:42:43.994Z,1156.00
2019-02-15T15:43:44.043Z,1144.00
2019-02-15T15:45:37.051Z,1124.00
2019-02-15T15:46:37.092Z,1116.00
2019-02-15T15:48:30.081Z,1096.00
2019-02-15T15:49:30.141Z,1084.00
2019-02-15T15:51:23.136Z,1064.00
2019-02-15T15:52:23.191Z,1052.00
2019-02-15T15:54:16.184Z,1032.00
2019-02-15T15:55:17.733Z,1016.00
2019-02-15T15:57:09.240Z,996.00
2019-02-15T15:58:09.297Z,984.00
2019-02-15T16:00:02.280Z,956.00
2019-02-15T16:01:02.340Z,944.00
2019-02-15T16:02:55.335Z,920.00
2019-02-15T16:03:55.411Z,904.00
2019-02-15T16:05:48.380Z,876.00
2019-02-15T16:06:48.432Z,860.00
2019-02-15T16:08:41.413Z,832.00
2019-02-15T16:09:41.473Z,820.00
2019-02-15T16:11:34.464Z,784.00
2019-02-15T16:12:34.513Z,768.00
2019-02-15T16:14:27.492Z,732.00
2019-02-15T16:15:27.556Z,716.00
2019-02-15T16:17:20.544Z,684.00
2019-02-15T16:18:20.605Z,664.00
2019-02-15T16:20:13.612Z,624.00
2019-02-15T16:21:13.679Z,604.00
2019-02-15T16:23:06.664Z,568.00
2019-02-15T16:24:12.765Z,548.00
2019-02-15T16:25:59.709Z,512.00
2019-02-15T16:26:59.757Z,488.00
2019-02-15T16:28:52.770Z,452.00
2019-02-15T16:29:52.809Z,432.00
2019-02-15T16:31:45.807Z,396.00
2019-02-15T16:32:45.860Z,372.00
2019-02-15T16:34:38.840Z,336.00
2019-02-15T16:35:38.908Z,312.00
2019-02-15T16:37:31.892Z,280.00
2019-02-15T16:38:31.942Z,260.00
2019-02-15T16:40:24.924Z,224.00
2019-02-15T16:41:24.982Z,212.00
2019-02-15T16:43:17.972Z,180.00
2019-02-15T16:44:18.025Z,164.00
2019-02-15T16:46:11.016Z,136.00
2019-02-15T16:47:11.067Z,124.00
2019-02-15T16:49:04.057Z,104.00
2019-02-15T16:50:04.119Z,88.00
2019-02-15T16:51:57.113Z,72.00
2019-02-15T16:52:57.164Z,64.00
2019-02-15T16:54:50.154Z,52.00
2019-02-15T16:55:50.206Z,44.00
2019-02-15T16:57:43.239Z,32.00
2019-02-15T16:58:43.247Z,28.00
2019-02-15T17:00:36.229Z,20.00
2019-02-15T17:01:36.298Z,16.00
2019-02-15T17:03:29.276Z,16.00
2019-02-15T17:04:29.328Z,12.00
2019-02-15T17:06:23.380Z,8.00
2019-02-15T17:07:22.370Z,4.00
2019-02-15T17:09:15.375Z,8.00
2019-02-15T17:10:15.422Z,4.00
2019-02-15T17:12:08.423Z,4.00
2019-02-15T17:13:08.455Z,0.00
2019-02-15T17:15:01.435Z,4.00
2019-02-15T17:16:01.487Z,0.00
2019-02-15T17:17:54.497Z,0.00
2019-02-15T17:18:54.542Z,0.00
2019-02-15T17:20:47.551Z,0.00
2019-02-15T17:21:47.583Z,0.00
2019-02-15T17:23:40.576Z,0.00
2019-02-15T17:24:40.620Z,0.00
2019-02-15T17:26:33.607Z,0.00
2019-02-15T17:27:33.658Z,0.00
2019-02-15T17:29:26.649Z,0.00
2019-02-15T17:30:26.699Z,0.00
2019-02-15T17:32:19.693Z,0.00
2019-02-15T17:33:19.745Z,0.00
2019-02-15T17:35:12.735Z,0.00
2019-02-15T17:36:12.807Z,0.00
2019-02-15T17:38:05.838Z,0.00
2019-02-15T17:39:05.830Z,0.00
2019-02-15T17:40:58.848Z,0.00
2019-02-15T17:41:58.870Z,0.00
2019-02-15T17:43:51.863Z,0.00
2019-02-15T17:44:51.915Z,0.00
2019-02-15T17:46:44.904Z,0.00
2019-02-15T17:47:44.953Z,0.00
2019-02-15T17:49:37.935Z,0.00
2019-02-15T17:50:37.994Z,0.00
2019-02-15T17:52:30.985Z,0.00
2019-02-15T17:53:31.035Z,0.00
2019-02-15T17:55:24.019Z,0.00
2019-02-15T17:56:24.109Z,0.00
2019-02-15T17:58:17.144Z,0.00
2019-02-15T17:59:17.156Z,0.00
2019-02-15T18:01:10.100Z,0.00
2019-02-15T18:02:10.159Z,0.00
2019-02-15T18:04:03.153Z,0.00
2019-02-15T18:05:03.210Z,0.00
2019-02-15T18:06:56.199Z,0.00
2019-02-15T18:07:56.248Z,0.00
2019-02-15T18:09:49.236Z,0.00
2019-02-15T18:10:49.302Z,0.00
2019-02-15T18:12:42.283Z,0.00